sensor_id;sensor_type;location;lat;lon;timestamp;temperature;humidity
21805;DHT22;11064;47.102;15.452;2023-02-01T05:03:35;-0.80;99.90
21805;DHT22;11064;47.102;15.452;2023-02-01T05:06:01;-0.90;99.90
21805;DHT22;11064;47.102;15.452;2023-02-01T05:08:29;-0.60;99.90
21805;DHT22;11064;47.102;15.452;2023-02-01T05:10:55;-0.70;99.90
21805;DHT22;11064;47.102;15.452;2023-02-01T05:13:21;-0.90;99.90
21805;DHT22;11064;47.102;15.452;2023-02-01T05:16:06;-0.90;99.90
21805;DHT22;11064;47.102;15.452;2023-02-01T05:18:32;-1.00;99.90
21805;DHT22;11064;47.102;15.452;2023-02-01T05:20:57;-1.20;99.90
21805;DHT22;11064;47.102;15.452;2023-02-01T05:23:23;-1.10;99.90
21805;DHT22;11064;47.102;15.452;2023-02-01T05:25:49;-1.20;99.90
21805;DHT22;11064;47.102;15.452;2023-02-01T05:28:15;-1.30;99.90
21805;DHT22;11064;47.102;15.452;2023-02-01T05:30:42;-1.40;99.90
21805;DHT22;11064;47.102;15.452;2023-02-01T05:33:07;-1.40;99.90
21805;DHT22;11064;47.102;15.452;2023-02-01T05:35:33;-1.50;99.90
21805;DHT22;11064;47.102;15.452;2023-02-01T05:37:59;-1.40;99.90
21805;DHT22;11064;47.102;15.452;2023-02-01T05:40:25;-1.40;99.90
21805;DHT22;11064;47.102;15.452;2023-02-01T05:42:51;-1.50;99.90
21805;DHT22;11064;47.102;15.452;2023-02-01T05:45:16;-1.50;99.90
21805;DHT22;11064;47.102;15.452;2023-02-01T05:47:42;-1.60;99.90
21805;DHT22;11064;47.102;15.452;2023-02-01T05:50:09;-1.60;99.90
21805;DHT22;11064;47.102;15.452;2023-02-01T05:52:34;-1.70;99.90
21805;DHT22;11064;47.102;15.452;2023-02-01T05:55:00;-1.70;99.90
21805;DHT22;11064;47.102;15.452;2023-02-01T05:57:26;-1.60;99.90
21805;DHT22;11064;47.102;15.452;2023-02-01T05:59:52;-1.40;99.90
21805;DHT22;11064;47.102;15.452;2023-02-01T06:02:18;-1.30;99.90
21805;DHT22;11064;47.102;15.452;2023-02-01T06:04:46;-1.20;99.90
21805;DHT22;11064;47.102;15.452;2023-02-01T06:07:12;-1.30;99.90
21805;DHT22;11064;47.102;15.452;2023-02-01T06:09:38;-1.50;99.90
21805;DHT22;11064;47.102;15.452;2023-02-01T06:12:04;-1.50;99.90
21805;DHT22;11064;47.102;15.452;2023-02-01T06:14:30;-1.50;99.90
21805;DHT22;11064;47.102;15.452;2023-02-01T06:16:57;-1.40;99.90
21805;DHT22;11064;47.102;15.452;2023-02-01T06:19:23;-1.10;99.90
21805;DHT22;11064;47.102;15.452;2023-02-01T06:21:49;-1.20;99.90
21805;DHT22;11064;47.102;15.452;2023-02-01T06:24:15;-1.20;99.90
21805;DHT22;11064;47.102;15.452;2023-02-01T06:26:41;-1.20;99.90
21805;DHT22;11064;47.102;15.452;2023-02-01T06:29:09;-1.20;99.90
21805;DHT22;11064;47.102;15.452;2023-02-01T06:31:35;-1.10;99.90
21805;DHT22;11064;47.102;15.452;2023-02-01T06:34:01;-1.10;99.90
21805;DHT22;11064;47.102;15.452;2023-02-01T06:36:29;-1.10;99.90
21805;DHT22;11064;47.102;15.452;2023-02-01T06:38:55;-0.80;99.90
21805;DHT22;11064;47.102;15.452;2023-02-01T06:41:23;-0.40;99.90
21805;DHT22;11064;47.102;15.452;2023-02-01T06:43:49;-0.30;99.90
21805;DHT22;11064;47.102;15.452;2023-02-01T06:46:14;-0.10;99.90
21805;DHT22;11064;47.102;15.452;2023-02-01T06:48:41;-0.10;99.90
21805;DHT22;11064;47.102;15.452;2023-02-01T06:51:23;-0.10;99.90
21805;DHT22;11064;47.102;15.452;2023-02-01T06:53:49;0.10;99.90
21805;DHT22;11064;47.102;15.452;2023-02-01T06:56:15;0.30;99.90
21805;DHT22;11064;47.102;15.452;2023-02-01T06:58:41;0.10;99.90
21805;DHT22;11064;47.102;15.452;2023-02-01T07:01:08;0.00;99.90
21805;DHT22;11064;47.102;15.452;2023-02-01T07:03:35;-0.10;99.90
21805;DHT22;11064;47.102;15.452;2023-02-01T07:06:01;-0.30;99.90
21805;DHT22;11064;47.102;15.452;2023-02-01T07:08:28;-0.30;99.90
21805;DHT22;11064;47.102;15.452;2023-02-01T07:10:54;-0.40;99.90
21805;DHT22;11064;47.102;15.452;2023-02-01T07:13:20;-0.50;99.90
21805;DHT22;11064;47.102;15.452;2023-02-01T07:15:45;-0.50;99.90
21805;DHT22;11064;47.102;15.452;2023-02-01T07:18:15;-0.50;99.90
21805;DHT22;11064;47.102;15.452;2023-02-01T07:20:41;-0.40;99.90
21805;DHT22;11064;47.102;15.452;2023-02-01T07:23:09;-0.40;99.90
21805;DHT22;11064;47.102;15.452;2023-02-01T07:25:35;-0.40;99.90
21805;DHT22;11064;47.102;15.452;2023-02-01T07:28:01;-0.10;99.90
21805;DHT22;11064;47.102;15.452;2023-02-01T07:30:26;0.00;99.90
21805;DHT22;11064;47.102;15.452;2023-02-01T07:32:52;0.10;99.90
21805;DHT22;11064;47.102;15.452;2023-02-01T07:35:18;0.20;99.90
21805;DHT22;11064;47.102;15.452;2023-02-01T07:37:44;0.30;99.90
21805;DHT22;11064;47.102;15.452;2023-02-01T07:40:11;0.30;99.90
21805;DHT22;11064;47.102;15.452;2023-02-01T07:42:37;0.30;99.90
21805;DHT22;11064;47.102;15.452;2023-02-01T07:45:03;0.20;99.90
21805;DHT22;11064;47.102;15.452;2023-02-01T07:47:29;0.20;99.90
21805;DHT22;11064;47.102;15.452;2023-02-01T07:49:55;0.20;99.90
21805;DHT22;11064;47.102;15.452;2023-02-01T07:52:21;0.20;99.90
21805;DHT22;11064;47.102;15.452;2023-02-01T07:54:47;0.20;99.90
21805;DHT22;11064;47.102;15.452;2023-02-01T07:57:12;0.20;99.90
21805;DHT22;11064;47.102;15.452;2023-02-01T07:59:38;0.40;99.90
21805;DHT22;11064;47.102;15.452;2023-02-01T08:02:24;0.60;99.90
21805;DHT22;11064;47.102;15.452;2023-02-01T08:04:50;0.60;99.90
21805;DHT22;11064;47.102;15.452;2023-02-01T08:07:16;0.90;99.90
21805;DHT22;11064;47.102;15.452;2023-02-01T08:09:42;0.90;99.90
21805;DHT22;11064;47.102;15.452;2023-02-01T08:12:07;0.90;99.90
21805;DHT22;11064;47.102;15.452;2023-02-01T08:14:33;1.10;99.90
21805;DHT22;11064;47.102;15.452;2023-02-01T08:16:59;1.30;99.90
21805;DHT22;11064;47.102;15.452;2023-02-01T08:19:25;1.30;99.90
21805;DHT22;11064;47.102;15.452;2023-02-01T08:21:51;1.30;99.90
21805;DHT22;11064;47.102;15.452;2023-02-01T08:24:16;1.10;99.90
21805;DHT22;11064;47.102;15.452;2023-02-01T08:26:42;1.20;99.90
21805;DHT22;11064;47.102;15.452;2023-02-01T08:29:09;1.10;99.90
21805;DHT22;11064;47.102;15.452;2023-02-01T08:31:37;1.10;99.90
21805;DHT22;11064;47.102;15.452;2023-02-01T08:34:06;1.10;99.90
21805;DHT22;11064;47.102;15.452;2023-02-01T08:36:34;1.00;99.90
21805;DHT22;11064;47.102;15.452;2023-02-01T08:39:01;1.10;99.90
21805;DHT22;11064;47.102;15.452;2023-02-01T08:41:29;1.40;99.90
21805;DHT22;11064;47.102;15.452;2023-02-01T08:43:56;1.50;99.90
21805;DHT22;11064;47.102;15.452;2023-02-01T08:46:23;1.60;99.90
21805;DHT22;11064;47.102;15.452;2023-02-01T08:48:49;1.70;99.90
21805;DHT22;11064;47.102;15.452;2023-02-01T08:51:17;1.70;99.90
21805;DHT22;11064;47.102;15.452;2023-02-01T08:53:44;1.80;99.90
21805;DHT22;11064;47.102;15.452;2023-02-01T08:56:11;1.80;99.90
21805;DHT22;11064;47.102;15.452;2023-02-01T08:58:37;1.80;99.90
21805;DHT22;11064;47.102;15.452;2023-02-01T09:01:09;1.90;99.90
21805;DHT22;11064;47.102;15.452;2023-02-01T09:03:36;2.00;99.90
21805;DHT22;11064;47.102;15.452;2023-02-01T09:06:06;2.10;99.90
21805;DHT22;11064;47.102;15.452;2023-02-01T09:08:33;2.30;99.90
21805;DHT22;11064;47.102;15.452;2023-02-01T09:11:04;2.40;99.90
21805;DHT22;11064;47.102;15.452;2023-02-01T09:13:30;2.50;99.90
21805;DHT22;11064;47.102;15.452;2023-02-01T09:15:56;2.60;99.90
21805;DHT22;11064;47.102;15.452;2023-02-01T09:18:22;2.80;99.90
21805;DHT22;11064;47.102;15.452;2023-02-01T09:20:48;3.10;99.90
21805;DHT22;11064;47.102;15.452;2023-02-01T09:23:14;3.40;99.90
21805;DHT22;11064;47.102;15.452;2023-02-01T09:25:40;3.70;99.90
21805;DHT22;11064;47.102;15.452;2023-02-01T09:28:06;4.00;99.90
21805;DHT22;11064;47.102;15.452;2023-02-01T09:30:33;4.20;99.50
21805;DHT22;11064;47.102;15.452;2023-02-01T09:32:59;4.20;98.30
21805;DHT22;11064;47.102;15.452;2023-02-01T09:35:25;4.30;98.40
21805;DHT22;11064;47.102;15.452;2023-02-01T09:37:53;4.50;97.10
21805;DHT22;11064;47.102;15.452;2023-02-01T09:40:19;4.70;97.10
21805;DHT22;11064;47.102;15.452;2023-02-01T09:43:18;4.80;96.80
21805;DHT22;11064;47.102;15.452;2023-02-01T09:48:39;5.30;95.70
21805;DHT22;11064;47.102;15.452;2023-02-01T09:51:16;5.40;94.80
21805;DHT22;11064;47.102;15.452;2023-02-01T09:56:44;5.70;93.50
21805;DHT22;11064;47.102;15.452;2023-02-01T09:59:31;6.00;93.50
21805;DHT22;11064;47.102;15.452;2023-02-01T10:02:01;6.20;93.50
21805;DHT22;11064;47.102;15.452;2023-02-01T10:04:27;6.30;93.00
21805;DHT22;11064;47.102;15.452;2023-02-01T10:15:37;7.00;92.80
21805;DHT22;11064;47.102;15.452;2023-02-01T10:21:20;7.30;90.90
21805;DHT22;11064;47.102;15.452;2023-02-01T10:26:26;7.50;90.00
21805;DHT22;11064;47.102;15.452;2023-02-01T10:29:01;7.70;88.40
21805;DHT22;11064;47.102;15.452;2023-02-01T10:31:45;8.10;87.30
21805;DHT22;11064;47.102;15.452;2023-02-01T10:34:31;8.30;84.50
21805;DHT22;11064;47.102;15.452;2023-02-01T10:37:07;8.40;84.40
21805;DHT22;11064;47.102;15.452;2023-02-01T10:39:35;8.50;83.00
21805;DHT22;11064;47.102;15.452;2023-02-01T10:42:02;8.60;82.00
21805;DHT22;11064;47.102;15.452;2023-02-01T10:44:30;8.70;80.90
21805;DHT22;11064;47.102;15.452;2023-02-01T10:46:57;8.60;81.20
21805;DHT22;11064;47.102;15.452;2023-02-01T10:49:37;8.70;81.10
21805;DHT22;11064;47.102;15.452;2023-02-01T10:54:38;8.70;78.20
21805;DHT22;11064;47.102;15.452;2023-02-01T10:57:22;8.90;78.50
21805;DHT22;11064;47.102;15.452;2023-02-01T10:59:51;9.20;77.90
21805;DHT22;11064;47.102;15.452;2023-02-01T11:02:33;9.20;77.40
21805;DHT22;11064;47.102;15.452;2023-02-01T11:05:08;9.40;76.10
21805;DHT22;11064;47.102;15.452;2023-02-01T11:07:36;9.50;74.70
21805;DHT22;11064;47.102;15.452;2023-02-01T11:10:03;9.50;75.20
21805;DHT22;11064;47.102;15.452;2023-02-01T11:12:32;9.50;75.60
21805;DHT22;11064;47.102;15.452;2023-02-01T11:15:22;9.40;74.30
21805;DHT22;11064;47.102;15.452;2023-02-01T11:17:50;9.20;74.50
21805;DHT22;11064;47.102;15.452;2023-02-01T11:20:40;9.10;76.40
21805;DHT22;11064;47.102;15.452;2023-02-01T11:23:20;9.00;75.30
21805;DHT22;11064;47.102;15.452;2023-02-01T11:28:25;9.00;74.00
21805;DHT22;11064;47.102;15.452;2023-02-01T11:30:55;9.10;73.60
21805;DHT22;11064;47.102;15.452;2023-02-01T11:33:27;9.10;73.80
21805;DHT22;11064;47.102;15.452;2023-02-01T11:35:57;9.10;72.60
21805;DHT22;11064;47.102;15.452;2023-02-01T11:38:32;9.00;72.80
21805;DHT22;11064;47.102;15.452;2023-02-01T11:41:19;9.00;73.60
21805;DHT22;11064;47.102;15.452;2023-02-01T11:44:02;9.10;73.00
21805;DHT22;11064;47.102;15.452;2023-02-01T11:46:41;9.10;72.90
21805;DHT22;11064;47.102;15.452;2023-02-01T11:49:22;9.20;72.40
21805;DHT22;11064;47.102;15.452;2023-02-01T11:57:38;9.70;69.70
21805;DHT22;11064;47.102;15.452;2023-02-01T12:05:31;10.00;68.50
21805;DHT22;11064;47.102;15.452;2023-02-01T12:11:23;9.70;65.40
21805;DHT22;11064;47.102;15.452;2023-02-01T12:14:01;9.70;66.30
21805;DHT22;11064;47.102;15.452;2023-02-01T12:16:35;9.80;65.40
21805;DHT22;11064;47.102;15.452;2023-02-01T12:38:59;9.70;58.90
21805;DHT22;11064;47.102;15.452;2023-02-01T12:41:59;9.70;59.90
21805;DHT22;11064;47.102;15.452;2023-02-01T12:47:11;9.80;56.30
21805;DHT22;11064;47.102;15.452;2023-02-01T12:50:21;9.60;58.00
21805;DHT22;11064;47.102;15.452;2023-02-01T12:52:53;9.50;57.60
21805;DHT22;11064;47.102;15.452;2023-02-01T12:58:26;9.40;57.40
21805;DHT22;11064;47.102;15.452;2023-02-01T13:01:02;9.40;56.10
21805;DHT22;11064;47.102;15.452;2023-02-01T13:06:23;9.20;59.00
21805;DHT22;11064;47.102;15.452;2023-02-01T13:09:12;9.10;59.70
21805;DHT22;11064;47.102;15.452;2023-02-01T13:11:44;9.00;57.50
21805;DHT22;11064;47.102;15.452;2023-02-01T13:14:27;9.00;58.40
21805;DHT22;11064;47.102;15.452;2023-02-01T13:17:19;9.00;58.20
21805;DHT22;11064;47.102;15.452;2023-02-01T13:19:56;8.90;59.30
21805;DHT22;11064;47.102;15.452;2023-02-01T13:22:27;8.80;61.40
21805;DHT22;11064;47.102;15.452;2023-02-01T13:25:01;8.70;58.40
21805;DHT22;11064;47.102;15.452;2023-02-01T13:27:29;8.50;60.30
21805;DHT22;11064;47.102;15.452;2023-02-01T13:30:19;8.50;59.50
21805;DHT22;11064;47.102;15.452;2023-02-01T13:35:37;8.40;60.50
21805;DHT22;11064;47.102;15.452;2023-02-01T13:43:45;8.00;65.70
21805;DHT22;11064;47.102;15.452;2023-02-01T13:46:13;8.00;63.60
21805;DHT22;11064;47.102;15.452;2023-02-01T13:48:47;8.00;64.50
21805;DHT22;11064;47.102;15.452;2023-02-01T13:51:15;8.00;65.50
21805;DHT22;11064;47.102;15.452;2023-02-01T13:53:46;7.80;68.40
21805;DHT22;11064;47.102;15.452;2023-02-01T13:56:19;7.90;64.90
21805;DHT22;11064;47.102;15.452;2023-02-01T13:58:47;7.90;66.10
21805;DHT22;11064;47.102;15.452;2023-02-01T14:03:48;7.90;65.60
21805;DHT22;11064;47.102;15.452;2023-02-01T14:11:36;7.60;68.40
21805;DHT22;11064;47.102;15.452;2023-02-01T14:19:29;7.50;69.90
21805;DHT22;11064;47.102;15.452;2023-02-01T14:21:57;7.40;71.10
21805;DHT22;11064;47.102;15.452;2023-02-01T14:24:35;7.40;69.90
21805;DHT22;11064;47.102;15.452;2023-02-01T14:27:25;7.40;71.00
21805;DHT22;11064;47.102;15.452;2023-02-01T14:30:06;7.20;72.20
21805;DHT22;11064;47.102;15.452;2023-02-01T14:32:39;7.30;71.30
21805;DHT22;11064;47.102;15.452;2023-02-01T14:35:16;7.20;70.50
21805;DHT22;11064;47.102;15.452;2023-02-01T14:37:44;7.10;71.00
21805;DHT22;11064;47.102;15.452;2023-02-01T14:40:15;7.10;70.20
21805;DHT22;11064;47.102;15.452;2023-02-01T14:42:46;7.10;70.50
21805;DHT22;11064;47.102;15.452;2023-02-01T14:47:54;6.90;71.70
21805;DHT22;11064;47.102;15.452;2023-02-01T14:56:00;6.90;73.10
21805;DHT22;11064;47.102;15.452;2023-02-01T14:58:39;6.80;72.40
21805;DHT22;11064;47.102;15.452;2023-02-01T15:01:29;6.90;70.10
21805;DHT22;11064;47.102;15.452;2023-02-01T15:06:35;6.90;69.90
21805;DHT22;11064;47.102;15.452;2023-02-01T15:09:09;6.80;70.40
21805;DHT22;11064;47.102;15.452;2023-02-01T15:14:19;6.70;70.30
21805;DHT22;11064;47.102;15.452;2023-02-01T15:16:45;6.60;69.70
21805;DHT22;11064;47.102;15.452;2023-02-01T15:19:23;6.60;71.70
21805;DHT22;11064;47.102;15.452;2023-02-01T15:21:51;6.50;71.10
21805;DHT22;11064;47.102;15.452;2023-02-01T15:24:30;6.50;70.50
21805;DHT22;11064;47.102;15.452;2023-02-01T15:27:03;6.40;70.90
21805;DHT22;11064;47.102;15.452;2023-02-01T15:29:30;6.50;69.80
21805;DHT22;11064;47.102;15.452;2023-02-01T15:31:59;6.60;69.60
21805;DHT22;11064;47.102;15.452;2023-02-01T15:34:48;6.60;70.40
21805;DHT22;11064;47.102;15.452;2023-02-01T15:37:16;6.50;70.10
21805;DHT22;11064;47.102;15.452;2023-02-01T15:42:55;6.50;69.90
21805;DHT22;11064;47.102;15.452;2023-02-01T15:45:25;6.40;69.30
21805;DHT22;11064;47.102;15.452;2023-02-01T15:47:55;6.30;71.20
21805;DHT22;11064;47.102;15.452;2023-02-01T15:50:22;6.20;70.50
21805;DHT22;11064;47.102;15.452;2023-02-01T15:52:52;6.10;73.50
21805;DHT22;11064;47.102;15.452;2023-02-01T15:55:23;6.00;71.40
21805;DHT22;11064;47.102;15.452;2023-02-01T15:57:50;6.10;70.80
21805;DHT22;11064;47.102;15.452;2023-02-01T16:00:34;6.10;71.10
21805;DHT22;11064;47.102;15.452;2023-02-01T16:03:20;6.10;71.20
21805;DHT22;11064;47.102;15.452;2023-02-01T16:05:55;6.10;71.00
21805;DHT22;11064;47.102;15.452;2023-02-01T16:08:25;5.90;73.20
21805;DHT22;11064;47.102;15.452;2023-02-01T16:10:53;5.80;72.20
21805;DHT22;11064;47.102;15.452;2023-02-01T16:13:20;5.90;71.10
21805;DHT22;11064;47.102;15.452;2023-02-01T16:15:48;5.90;70.00
21805;DHT22;11064;47.102;15.452;2023-02-01T16:18:15;6.00;71.10
21805;DHT22;11064;47.102;15.452;2023-02-01T16:20:42;6.00;70.30
21805;DHT22;11064;47.102;15.452;2023-02-01T16:23:09;6.00;69.90
21805;DHT22;11064;47.102;15.452;2023-02-01T16:25:37;5.90;70.50
21805;DHT22;11064;47.102;15.452;2023-02-01T16:28:04;5.80;70.60
21805;DHT22;11064;47.102;15.452;2023-02-01T16:30:34;5.70;72.60
21805;DHT22;11064;47.102;15.452;2023-02-01T16:33:01;5.60;71.00
21805;DHT22;11064;47.102;15.452;2023-02-01T16:35:33;5.60;72.40
21805;DHT22;11064;47.102;15.452;2023-02-01T16:38:04;5.40;73.00
21805;DHT22;11064;47.102;15.452;2023-02-01T16:40:34;5.30;74.40
21805;DHT22;11064;47.102;15.452;2023-02-01T16:43:00;5.20;73.40
21805;DHT22;11064;47.102;15.452;2023-02-01T16:45:26;5.30;73.70
21805;DHT22;11064;47.102;15.452;2023-02-01T16:47:54;5.30;73.30
21805;DHT22;11064;47.102;15.452;2023-02-01T16:50:24;5.40;73.10
21805;DHT22;11064;47.102;15.452;2023-02-01T16:52:51;5.40;73.50
21805;DHT22;11064;47.102;15.452;2023-02-01T16:55:20;5.30;73.90
21805;DHT22;11064;47.102;15.452;2023-02-01T16:57:47;5.30;73.60
21805;DHT22;11064;47.102;15.452;2023-02-01T17:00:13;5.20;74.30
21805;DHT22;11064;47.102;15.452;2023-02-01T17:02:41;5.10;74.30
21805;DHT22;11064;47.102;15.452;2023-02-01T17:05:09;5.10;74.50
21805;DHT22;11064;47.102;15.452;2023-02-01T17:07:36;5.00;75.10
21805;DHT22;11064;47.102;15.452;2023-02-01T17:10:05;5.10;74.60
21805;DHT22;11064;47.102;15.452;2023-02-01T17:12:32;5.10;74.70
21805;DHT22;11064;47.102;15.452;2023-02-01T17:14:59;5.20;74.30
21805;DHT22;11064;47.102;15.452;2023-02-01T17:17:38;5.10;74.50
21805;DHT22;11064;47.102;15.452;2023-02-01T17:20:15;5.10;74.90
21805;DHT22;11064;47.102;15.452;2023-02-01T17:22:43;5.00;74.90
21805;DHT22;11064;47.102;15.452;2023-02-01T17:25:18;4.90;75.80
21805;DHT22;11064;47.102;15.452;2023-02-01T17:27:44;4.70;77.70
21805;DHT22;11064;47.102;15.452;2023-02-01T17:30:11;4.60;78.10
21805;DHT22;11064;47.102;15.452;2023-02-01T17:32:37;4.50;78.10
21805;DHT22;11064;47.102;15.452;2023-02-01T17:35:05;4.40;78.00
21805;DHT22;11064;47.102;15.452;2023-02-01T17:37:33;4.40;78.40
21805;DHT22;11064;47.102;15.452;2023-02-01T17:40:01;4.40;78.40
21805;DHT22;11064;47.102;15.452;2023-02-01T17:42:28;4.40;78.70
21805;DHT22;11064;47.102;15.452;2023-02-01T17:45:00;4.40;78.20
21805;DHT22;11064;47.102;15.452;2023-02-01T17:47:27;4.30;78.20
21805;DHT22;11064;47.102;15.452;2023-02-01T17:49:53;4.40;78.20
21805;DHT22;11064;47.102;15.452;2023-02-01T17:52:24;4.30;78.50
21805;DHT22;11064;47.102;15.452;2023-02-01T17:54:50;4.20;79.10
21805;DHT22;11064;47.102;15.452;2023-02-01T17:57:19;4.20;79.40
21805;DHT22;11064;47.102;15.452;2023-02-01T17:59:45;4.10;79.70
21805;DHT22;11064;47.102;15.452;2023-02-01T18:02:24;4.00;79.70
21805;DHT22;11064;47.102;15.452;2023-02-01T18:04:51;4.10;79.90
21805;DHT22;11064;47.102;15.452;2023-02-01T18:07:17;4.10;79.60
21805;DHT22;11064;47.102;15.452;2023-02-01T18:09:43;4.00;80.10
21805;DHT22;11064;47.102;15.452;2023-02-01T18:12:18;4.00;80.10
21805;DHT22;11064;47.102;15.452;2023-02-01T18:14:47;3.90;80.10
21805;DHT22;11064;47.102;15.452;2023-02-01T18:17:13;4.00;80.40
21805;DHT22;11064;47.102;15.452;2023-02-01T18:19:40;4.00;80.20
21805;DHT22;11064;47.102;15.452;2023-02-01T18:22:08;4.10;80.10
21805;DHT22;11064;47.102;15.452;2023-02-01T18:24:38;4.00;80.30
21805;DHT22;11064;47.102;15.452;2023-02-01T18:27:04;4.00;80.60
21805;DHT22;11064;47.102;15.452;2023-02-01T18:29:30;3.90;80.60
21805;DHT22;11064;47.102;15.452;2023-02-01T18:31:58;4.00;80.30
21805;DHT22;11064;47.102;15.452;2023-02-01T18:34:24;4.10;80.40
21805;DHT22;11064;47.102;15.452;2023-02-01T18:36:51;4.00;80.50
21805;DHT22;11064;47.102;15.452;2023-02-01T18:39:19;3.90;81.10
21805;DHT22;11064;47.102;15.452;2023-02-01T18:41:50;3.90;81.30
21805;DHT22;11064;47.102;15.452;2023-02-01T18:44:17;3.90;81.80
21805;DHT22;11064;47.102;15.452;2023-02-01T18:46:45;3.90;82.40
21805;DHT22;11064;47.102;15.452;2023-02-01T18:49:11;3.70;83.50
21805;DHT22;11064;47.102;15.452;2023-02-01T18:51:43;3.60;83.30
21805;DHT22;11064;47.102;15.452;2023-02-01T18:54:10;3.50;83.70
21805;DHT22;11064;47.102;15.452;2023-02-01T18:56:40;3.50;84.60
21805;DHT22;11064;47.102;15.452;2023-02-01T18:59:08;3.50;84.50
21805;DHT22;11064;47.102;15.452;2023-02-01T19:01:36;3.60;84.20
21805;DHT22;11064;47.102;15.452;2023-02-01T19:04:02;3.50;85.50
21805;DHT22;11064;47.102;15.452;2023-02-01T19:06:29;3.40;86.50
21805;DHT22;11064;47.102;15.452;2023-02-01T19:08:55;3.30;86.60
21805;DHT22;11064;47.102;15.452;2023-02-01T19:11:24;3.20;87.50
21805;DHT22;11064;47.102;15.452;2023-02-01T19:13:50;3.10;87.80
21805;DHT22;11064;47.102;15.452;2023-02-01T19:16:16;3.20;87.90
21805;DHT22;11064;47.102;15.452;2023-02-01T19:18:43;3.20;87.60
21805;DHT22;11064;47.102;15.452;2023-02-01T19:21:11;3.20;87.60
21805;DHT22;11064;47.102;15.452;2023-02-01T19:23:38;3.20;87.90
21805;DHT22;11064;47.102;15.452;2023-02-01T19:26:10;3.20;88.30
21805;DHT22;11064;47.102;15.452;2023-02-01T19:28:36;3.20;88.70
21805;DHT22;11064;47.102;15.452;2023-02-01T19:31:04;3.20;88.80
21805;DHT22;11064;47.102;15.452;2023-02-01T19:33:30;3.20;88.80
21805;DHT22;11064;47.102;15.452;2023-02-01T19:35:58;3.20;89.10
21805;DHT22;11064;47.102;15.452;2023-02-01T19:38:24;3.20;89.50
21805;DHT22;11064;47.102;15.452;2023-02-01T19:40:51;3.10;90.40
21805;DHT22;11064;47.102;15.452;2023-02-01T19:43:17;2.90;90.80
21805;DHT22;11064;47.102;15.452;2023-02-01T19:45:44;3.10;90.80
21805;DHT22;11064;47.102;15.452;2023-02-01T19:48:11;3.10;90.70
21805;DHT22;11064;47.102;15.452;2023-02-01T19:50:42;3.30;91.10
21805;DHT22;11064;47.102;15.452;2023-02-01T19:53:08;3.30;90.70
21805;DHT22;11064;47.102;15.452;2023-02-01T19:55:34;3.30;91.00
21805;DHT22;11064;47.102;15.452;2023-02-01T19:58:00;3.40;91.40
21805;DHT22;11064;47.102;15.452;2023-02-01T20:00:30;3.50;91.60
21805;DHT22;11064;47.102;15.452;2023-02-01T20:02:57;3.50;91.50
21805;DHT22;11064;47.102;15.452;2023-02-01T20:05:24;3.40;92.00
21805;DHT22;11064;47.102;15.452;2023-02-01T20:07:50;3.40;92.20
21805;DHT22;11064;47.102;15.452;2023-02-01T20:10:17;3.30;92.30
21805;DHT22;11064;47.102;15.452;2023-02-01T20:12:43;3.20;92.70
21805;DHT22;11064;47.102;15.452;2023-02-01T20:15:13;3.00;93.10
21805;DHT22;11064;47.102;15.452;2023-02-01T20:17:40;2.80;93.80
21805;DHT22;11064;47.102;15.452;2023-02-01T20:20:07;2.80;94.30
21805;DHT22;11064;47.102;15.452;2023-02-01T20:22:34;2.70;94.80
21805;DHT22;11064;47.102;15.452;2023-02-01T20:25:00;2.60;95.70
21805;DHT22;11064;47.102;15.452;2023-02-01T20:27:29;2.50;95.80
21805;DHT22;11064;47.102;15.452;2023-02-01T20:29:55;2.40;96.60
21805;DHT22;11064;47.102;15.452;2023-02-01T20:32:26;2.40;97.60
21805;DHT22;11064;47.102;15.452;2023-02-01T20:34:52;2.40;98.20
21805;DHT22;11064;47.102;15.452;2023-02-01T20:37:19;2.60;98.60
21805;DHT22;11064;47.102;15.452;2023-02-01T20:39:46;2.50;98.70
21805;DHT22;11064;47.102;15.452;2023-02-01T20:42:12;2.50;99.40
21805;DHT22;11064;47.102;15.452;2023-02-01T20:44:39;2.50;99.90
21805;DHT22;11064;47.102;15.452;2023-02-01T20:47:05;2.40;99.90
21805;DHT22;11064;47.102;15.452;2023-02-01T20:49:31;2.40;99.90
21805;DHT22;11064;47.102;15.452;2023-02-01T20:51:59;2.40;99.90
21805;DHT22;11064;47.102;15.452;2023-02-01T20:54:25;2.40;99.90
21805;DHT22;11064;47.102;15.452;2023-02-01T20:56:51;2.40;99.90
21805;DHT22;11064;47.102;15.452;2023-02-01T20:59:17;2.40;99.90
21805;DHT22;11064;47.102;15.452;2023-02-01T21:01:44;2.50;99.90
21805;DHT22;11064;47.102;15.452;2023-02-01T21:04:21;2.60;99.90
21805;DHT22;11064;47.102;15.452;2023-02-01T21:06:48;2.70;99.90
21805;DHT22;11064;47.102;15.452;2023-02-01T21:09:15;2.60;99.90
21805;DHT22;11064;47.102;15.452;2023-02-01T21:11:41;2.60;99.90
21805;DHT22;11064;47.102;15.452;2023-02-01T21:14:09;2.50;99.90
21805;DHT22;11064;47.102;15.452;2023-02-01T21:16:35;2.60;99.90
21805;DHT22;11064;47.102;15.452;2023-02-01T21:19:01;2.40;99.90
21805;DHT22;11064;47.102;15.452;2023-02-01T21:21:27;2.30;99.90
21805;DHT22;11064;47.102;15.452;2023-02-01T21:23:57;2.20;99.90
21805;DHT22;11064;47.102;15.452;2023-02-01T21:26:24;2.10;99.90
21805;DHT22;11064;47.102;15.452;2023-02-01T21:28:52;2.00;99.90
21805;DHT22;11064;47.102;15.452;2023-02-01T21:31:19;2.00;99.90
21805;DHT22;11064;47.102;15.452;2023-02-01T21:33:47;1.90;99.90
21805;DHT22;11064;47.102;15.452;2023-02-01T21:36:15;1.80;99.90
21805;DHT22;11064;47.102;15.452;2023-02-01T21:38:48;1.80;99.90
21805;DHT22;11064;47.102;15.452;2023-02-01T21:41:23;1.80;99.90
21805;DHT22;11064;47.102;15.452;2023-02-01T21:44:08;1.80;99.90
21805;DHT22;11064;47.102;15.452;2023-02-01T21:46:35;1.80;99.90
21805;DHT22;11064;47.102;15.452;2023-02-01T21:49:01;1.80;99.90
21805;DHT22;11064;47.102;15.452;2023-02-01T21:51:28;1.80;99.90
21805;DHT22;11064;47.102;15.452;2023-02-01T21:53:54;1.80;99.90
21805;DHT22;11064;47.102;15.452;2023-02-01T21:56:20;1.90;99.90
21805;DHT22;11064;47.102;15.452;2023-02-01T21:58:46;1.80;99.90
21805;DHT22;11064;47.102;15.452;2023-02-01T22:01:12;1.90;99.90
21805;DHT22;11064;47.102;15.452;2023-02-01T22:03:38;1.90;99.90
21805;DHT22;11064;47.102;15.452;2023-02-01T22:06:04;1.80;99.90
21805;DHT22;11064;47.102;15.452;2023-02-01T22:08:36;1.80;99.90
21805;DHT22;11064;47.102;15.452;2023-02-01T22:11:03;1.80;99.90
21805;DHT22;11064;47.102;15.452;2023-02-01T22:13:29;1.90;99.90
21805;DHT22;11064;47.102;15.452;2023-02-01T22:15:56;1.80;99.90
21805;DHT22;11064;47.102;15.452;2023-02-01T22:18:23;1.80;99.90
21805;DHT22;11064;47.102;15.452;2023-02-01T22:20:49;1.80;99.90
21805;DHT22;11064;47.102;15.452;2023-02-01T22:23:15;1.80;99.90
21805;DHT22;11064;47.102;15.452;2023-02-01T22:25:41;1.80;99.90
21805;DHT22;11064;47.102;15.452;2023-02-01T22:28:06;1.70;99.90
21805;DHT22;11064;47.102;15.452;2023-02-01T22:30:32;1.70;99.90